Time;durP1;ratioP1;P1;durP2;ratioP2;P2;SDS_P1;SDS_P2;PMS_P1;PMS_P2;Temp;Humidity;BMP_temperature;BMP_pressure;BME280_temperature;BME280_humidity;BME280_pressure;Samples;Min_cycle;Max_cycle;Signal;HPM_P1;HPM_P2
2022/05/28 00:00:36;;;;;;;15.13;3.80;;;;;;;;;;5070936;28;20468;-70
2022/05/28 00:03:05;;;;;;;15.43;3.80;;;;;;;;;;5071084;28;20470;-70
2022/05/28 00:05:32;;;;;;;16.80;3.70;;;;;;;;;;5070530;28;20578;-70
2022/05/28 00:08:00;;;;;;;14.73;3.70;;;;;;;;;;5070590;28;20471;-70
2022/05/28 00:10:27;;;;;;;13.60;3.10;;;;;;;;;;5070626;28;20810;-70
2022/05/28 00:12:55;;;;;;;18.50;4.27;;;;;;;;;;5070921;28;20467;-70
2022/05/28 00:15:24;;;;;;;14.20;3.90;;;;;;;;;;5071121;28;20948;-71
2022/05/28 00:17:52;;;;;;;12.23;3.03;;;;;;;;;;5074713;28;20944;-70
2022/05/28 00:20:19;;;;;;;12.70;2.87;;;;;;;;;;5074801;28;20437;-69
2022/05/28 00:22:47;;;;;;;13.97;3.40;;;;;;;;;;5074567;28;20443;-70
2022/05/28 00:25:15;;;;;;;14.00;3.30;;;;;;;;;;5074706;28;20446;-69
2022/05/28 00:27:43;;;;;;;13.47;3.30;;;;;;;;;;5074429;28;20512;-71
2022/05/28 00:30:11;;;;;;;16.20;3.20;;;;;;;;;;5074566;28;20443;-70
2022/05/28 00:32:41;;;;;;;13.97;3.10;;;;;;;;;;5074408;28;20478;-70
2022/05/28 00:35:09;;;;;;;17.87;3.23;;;;;;;;;;5074315;28;21036;-70
2022/05/28 00:37:37;;;;;;;16.07;3.73;;;;;;;;;;5074047;28;20462;-70
2022/05/28 00:40:05;;;;;;;16.70;3.50;;;;;;;;;;5074445;28;20442;-70
2022/05/28 00:42:33;;;;;;;13.37;3.27;;;;;;;;;;5074198;28;20438;-70
2022/05/28 00:45:00;;;;;;;14.03;3.13;;;;;;;;;;5074066;28;20449;-70
2022/05/28 00:47:28;;;;;;;13.90;3.20;;;;;;;;;;5073806;28;20496;-70
2022/05/28 00:49:57;;;;;;;13.63;3.23;;;;;;;;;;5073936;28;20446;-70
2022/05/28 00:52:25;;;;;;;15.53;3.87;;;;;;;;;;5073996;28;20446;-70
2022/05/28 00:54:54;;;;;;;13.60;3.43;;;;;;;;;;5073862;28;20519;-70
2022/05/28 00:57:22;;;;;;;14.80;3.90;;;;;;;;;;5074112;28;20481;-71
2022/05/28 00:59:49;;;;;;;15.80;3.70;;;;;;;;;;5073671;28;20982;-70
2022/05/28 01:02:20;;;;;;;18.20;3.73;;;;;;;;;;5073861;28;20442;-70
2022/05/28 01:04:51;;;;;;;15.90;3.43;;;;;;;;;;5073811;28;21001;-70
2022/05/28 01:07:26;;;;;;;19.77;3.30;;;;;;;;;;5073666;28;20549;-70
2022/05/28 01:09:57;;;;;;;16.60;3.50;;;;;;;;;;5073720;28;20433;-70
2022/05/28 01:12:30;;;;;;;15.90;3.70;;;;;;;;;;5073985;28;20825;-70
2022/05/28 01:15:02;;;;;;;15.57;3.40;;;;;;;;;;5073618;28;20850;-70
2022/05/28 01:17:32;;;;;;;14.00;3.43;;;;;;;;;;5073615;28;20460;-70
2022/05/28 01:20:06;;;;;;;14.73;3.53;;;;;;;;;;5073738;28;20466;-70
2022/05/28 01:22:41;;;;;;;14.83;3.63;;;;;;;;;;5073550;28;20450;-70
2022/05/28 01:25:12;;;;;;;19.87;3.63;;;;;;;;;;5073501;28;20527;-70
2022/05/28 01:27:44;;;;;;;17.67;3.50;;;;;;;;;;5072695;28;20470;-70
2022/05/28 01:30:13;;;;;;;14.63;4.03;;;;;;;;;;5073567;28;20447;-70
2022/05/28 01:32:42;;;;;;;13.83;3.33;;;;;;;;;;5073910;28;20858;-70
2022/05/28 01:35:15;;;;;;;14.10;3.93;;;;;;;;;;5073232;28;20450;-70
2022/05/28 01:37:44;;;;;;;14.70;3.70;;;;;;;;;;5072979;28;20456;-70
2022/05/28 01:40:14;;;;;;;13.83;3.40;;;;;;;;;;5073094;28;20442;-70
2022/05/28 01:42:44;;;;;;;14.03;3.30;;;;;;;;;;5073289;28;20435;-70
2022/05/28 01:45:12;;;;;;;17.70;3.83;;;;;;;;;;5073059;28;20454;-70
2022/05/28 01:47:42;;;;;;;16.13;4.40;;;;;;;;;;5072990;28;20481;-70
2022/05/28 01:50:12;;;;;;;14.63;3.50;;;;;;;;;;5073205;28;20565;-70
2022/05/28 01:52:40;;;;;;;15.33;3.77;;;;;;;;;;5072867;28;20439;-70
2022/05/28 01:55:09;;;;;;;13.10;3.30;;;;;;;;;;5072880;28;20600;-70
2022/05/28 01:57:37;;;;;;;14.40;4.40;;;;;;;;;;5072598;28;20454;-70
2022/05/28 02:00:07;;;;;;;18.67;3.97;;;;;;;;;;5072880;28;20457;-70
2022/05/28 02:02:37;;;;;;;13.77;3.40;;;;;;;;;;5072876;28;20445;-70
2022/05/28 02:05:04;;;;;;;17.47;4.33;;;;;;;;;;5072698;28;20482;-69
2022/05/28 02:07:32;;;;;;;16.63;3.83;;;;;;;;;;5072460;28;20577;-70
2022/05/28 02:10:01;;;;;;;14.20;3.93;;;;;;;;;;5072496;28;20442;-70
2022/05/28 02:12:31;;;;;;;14.30;3.77;;;;;;;;;;5072770;28;20450;-71
2022/05/28 02:15:16;;;;;;;14.73;4.00;;;;;;;;;;5072394;28;20864;-71
2022/05/28 02:17:48;;;;;;;14.40;4.07;;;;;;;;;;5072467;28;20839;-69
2022/05/28 02:20:19;;;;;;;15.60;3.90;;;;;;;;;;5072863;28;20450;-70
2022/05/28 02:22:51;;;;;;;14.63;3.80;;;;;;;;;;5072267;28;20446;-70
2022/05/28 02:25:22;;;;;;;15.00;3.60;;;;;;;;;;5072268;28;20460;-70
2022/05/28 02:27:51;;;;;;;14.57;3.90;;;;;;;;;;5072470;28;20489;-71
2022/05/28 02:30:20;;;;;;;15.77;4.10;;;;;;;;;;5072336;28;20454;-70
2022/05/28 02:32:48;;;;;;;15.77;3.80;;;;;;;;;;5072065;28;20446;-70
2022/05/28 02:35:15;;;;;;;14.23;3.63;;;;;;;;;;5072236;28;20439;-70
2022/05/28 02:37:42;;;;;;;14.63;4.03;;;;;;;;;;5071367;28;20982;-70
2022/05/28 02:40:10;;;;;;;14.53;4.10;;;;;;;;;;5071593;28;20866;-70
2022/05/28 02:42:38;;;;;;;14.93;4.00;;;;;;;;;;5071799;28;20448;-70
2022/05/28 02:45:06;;;;;;;14.03;3.60;;;;;;;;;;5071824;28;20529;-69
2022/05/28 02:47:35;;;;;;;14.00;3.70;;;;;;;;;;5071725;28;20487;-70
2022/05/28 02:50:03;;;;;;;14.00;3.53;;;;;;;;;;5071627;28;20442;-70
2022/05/28 02:52:30;;;;;;;15.23;4.13;;;;;;;;;;5072491;28;20445;-69
2022/05/28 02:54:57;;;;;;;15.03;4.00;;;;;;;;;;5072105;28;20462;-70
2022/05/28 02:57:25;;;;;;;16.17;4.23;;;;;;;;;;5072993;28;20439;-69
2022/05/28 02:59:52;;;;;;;17.30;3.93;;;;;;;;;;5072681;28;20508;-69
2022/05/28 03:02:20;;;;;;;14.00;3.47;;;;;;;;;;5072444;28;20442;-70
2022/05/28 03:04:50;;;;;;;15.40;3.90;;;;;;;;;;5072494;28;20478;-70
2022/05/28 03:07:17;;;;;;;15.70;4.27;;;;;;;;;;5072423;28;20479;-69
2022/05/28 03:09:45;;;;;;;16.23;4.47;;;;;;;;;;5072148;28;20432;-70
2022/05/28 03:12:12;;;;;;;18.77;5.27;;;;;;;;;;5072391;28;20802;-69
2022/05/28 03:14:40;;;;;;;15.10;4.10;;;;;;;;;;5072465;28;20454;-70
2022/05/28 03:17:07;;;;;;;14.87;4.47;;;;;;;;;;5072242;28;20454;-69
2022/05/28 03:19:35;;;;;;;14.87;4.07;;;;;;;;;;5072111;28;20541;-70
2022/05/28 03:22:04;;;;;;;15.70;3.50;;;;;;;;;;5071971;28;20826;-70
2022/05/28 03:24:32;;;;;;;18.20;4.67;;;;;;;;;;5072367;28;20818;-70
2022/05/28 03:26:59;;;;;;;15.90;3.70;;;;;;;;;;5072248;28;20443;-70
2022/05/28 03:29:27;;;;;;;15.07;4.40;;;;;;;;;;5071971;28;20430;-70
2022/05/28 03:31:54;;;;;;;15.43;3.97;;;;;;;;;;5072309;28;21011;-70
2022/05/28 03:34:21;;;;;;;17.20;4.30;;;;;;;;;;5072022;28;20446;-70
2022/05/28 03:36:49;;;;;;;13.70;3.83;;;;;;;;;;5071961;28;20435;-69
2022/05/28 03:39:18;;;;;;;17.97;4.20;;;;;;;;;;5072456;28;20530;-69
2022/05/28 03:41:46;;;;;;;14.90;4.30;;;;;;;;;;5071858;28;20450;-69
2022/05/28 03:44:13;;;;;;;13.73;3.63;;;;;;;;;;5071904;28;21027;-70
2022/05/28 03:46:42;;;;;;;18.20;3.70;;;;;;;;;;5071916;28;20443;-69
2022/05/28 03:49:16;;;;;;;15.77;3.93;;;;;;;;;;5071465;28;20486;-69
2022/05/28 03:51:44;;;;;;;14.20;3.70;;;;;;;;;;5071882;28;20541;-70
2022/05/28 03:54:11;;;;;;;16.60;4.10;;;;;;;;;;5071369;28;20451;-70
2022/05/28 03:56:41;;;;;;;14.40;3.70;;;;;;;;;;5072004;28;20443;-69
2022/05/28 03:59:09;;;;;;;29.77;5.20;;;;;;;;;;5071898;28;20462;-70
2022/05/28 04:01:37;;;;;;;15.57;4.07;;;;;;;;;;5071537;28;20424;-70
2022/05/28 04:04:05;;;;;;;14.47;3.50;;;;;;;;;;5072279;28;20457;-70
2022/05/28 04:06:34;;;;;;;22.63;3.40;;;;;;;;;;5072253;28;20435;-70
2022/05/28 04:09:01;;;;;;;14.40;3.73;;;;;;;;;;5071797;28;21018;-70
2022/05/28 04:11:29;;;;;;;15.60;4.23;;;;;;;;;;5071539;28;20456;-70
2022/05/28 04:13:58;;;;;;;24.60;4.33;;;;;;;;;;5071567;28;20451;-70
2022/05/28 04:16:26;;;;;;;15.60;3.67;;;;;;;;;;5071634;28;20437;-70
2022/05/28 04:18:53;;;;;;;14.30;3.50;;;;;;;;;;5072011;28;20786;-70
2022/05/28 04:21:21;;;;;;;14.07;3.30;;;;;;;;;;5071839;28;20446;-70
2022/05/28 04:23:48;;;;;;;15.53;4.03;;;;;;;;;;5071282;28;20952;-70
2022/05/28 04:26:15;;;;;;;13.97;3.47;;;;;;;;;;5071697;28;20446;-70
2022/05/28 04:28:43;;;;;;;14.50;3.53;;;;;;;;;;5071446;28;20489;-70
2022/05/28 04:31:12;;;;;;;13.70;3.20;;;;;;;;;;5071638;28;20446;-70
2022/05/28 04:33:40;;;;;;;14.27;3.57;;;;;;;;;;5071484;28;20883;-70
2022/05/28 04:36:07;;;;;;;13.33;3.33;;;;;;;;;;5071540;28;20450;-70
2022/05/28 04:38:35;;;;;;;14.47;3.40;;;;;;;;;;5071349;28;20448;-70
2022/05/28 04:41:02;;;;;;;15.30;3.37;;;;;;;;;;5071395;28;20457;-70
2022/05/28 04:43:30;;;;;;;14.50;3.03;;;;;;;;;;5071125;28;20442;-71
2022/05/28 04:45:57;;;;;;;13.00;3.27;;;;;;;;;;5071352;28;20446;-70
2022/05/28 04:48:27;;;;;;;17.63;3.10;;;;;;;;;;5071488;28;20514;-70
2022/05/28 04:50:54;;;;;;;16.40;3.27;;;;;;;;;;5071354;28;20448;-70
2022/05/28 04:53:21;;;;;;;13.30;3.33;;;;;;;;;;5071166;28;20440;-70
2022/05/28 04:55:49;;;;;;;15.47;3.73;;;;;;;;;;5070922;28;20864;-70
2022/05/28 04:58:17;;;;;;;13.70;3.33;;;;;;;;;;5071259;28;20446;-70
2022/05/28 05:00:45;;;;;;;13.63;3.80;;;;;;;;;;5071205;28;20828;-70
2022/05/28 05:03:13;;;;;;;15.00;3.57;;;;;;;;;;5074258;28;20451;-70
2022/05/28 05:05:42;;;;;;;15.10;3.60;;;;;;;;;;5074378;28;20496;-70
2022/05/28 05:08:10;;;;;;;16.30;3.33;;;;;;;;;;5074780;28;20548;-70
2022/05/28 05:10:37;;;;;;;14.10;2.87;;;;;;;;;;5074918;28;20445;-71
2022/05/28 05:13:05;;;;;;;15.37;3.00;;;;;;;;;;5074520;28;20451;-71
2022/05/28 05:15:32;;;;;;;13.60;3.40;;;;;;;;;;5074716;28;20443;-71
2022/05/28 05:18:00;;;;;;;13.20;3.23;;;;;;;;;;5074974;28;20954;-71
2022/05/28 05:20:27;;;;;;;14.67;3.80;;;;;;;;;;5074604;28;20443;-70
2022/05/28 05:22:57;;;;;;;14.10;3.60;;;;;;;;;;5074371;28;20959;-71
2022/05/28 05:25:26;;;;;;;13.60;3.20;;;;;;;;;;5074629;28;20441;-71
2022/05/28 05:27:54;;;;;;;14.80;3.17;;;;;;;;;;5074599;28;20483;-71
2022/05/28 05:30:21;;;;;;;22.33;3.70;;;;;;;;;;5074591;28;20435;-70
2022/05/28 05:32:48;;;;;;;14.80;3.70;;;;;;;;;;5074234;28;20435;-71
2022/05/28 05:35:16;;;;;;;13.43;3.23;;;;;;;;;;5074334;28;20459;-70
2022/05/28 05:37:43;;;;;;;14.43;3.33;;;;;;;;;;5073940;28;20455;-71
2022/05/28 05:40:14;;;;;;;15.10;4.10;;;;;;;;;;5074364;28;20435;-71
2022/05/28 05:42:41;;;;;;;15.90;3.47;;;;;;;;;;5074173;28;20477;-71
2022/05/28 05:45:09;;;;;;;14.03;3.73;;;;;;;;;;5074111;28;20868;-71
2022/05/28 05:47:36;;;;;;;14.00;4.03;;;;;;;;;;5073814;28;20959;-71
2022/05/28 05:50:04;;;;;;;13.70;3.67;;;;;;;;;;5073826;28;20435;-71
2022/05/28 05:52:32;;;;;;;15.00;4.13;;;;;;;;;;5074411;28;20509;-71
2022/05/28 05:55:01;;;;;;;15.87;4.00;;;;;;;;;;5073566;28;20459;-71
2022/05/28 05:57:30;;;;;;;15.27;4.10;;;;;;;;;;5073804;28;20454;-72
2022/05/28 05:59:58;;;;;;;14.37;3.50;;;;;;;;;;5073988;28;20440;-71
2022/05/28 06:02:25;;;;;;;14.70;3.43;;;;;;;;;;5073832;28;20508;-71
2022/05/28 06:04:53;;;;;;;13.93;3.60;;;;;;;;;;5073791;28;20475;-71
2022/05/28 06:07:21;;;;;;;15.80;3.67;;;;;;;;;;5073717;28;20493;-71
2022/05/28 06:09:48;;;;;;;13.63;3.30;;;;;;;;;;5073860;28;20490;-71
2022/05/28 06:12:16;;;;;;;15.60;3.80;;;;;;;;;;5073498;28;21063;-71
2022/05/28 06:14:45;;;;;;;16.23;4.23;;;;;;;;;;5073557;28;20444;-70
2022/05/28 06:17:12;;;;;;;13.70;3.70;;;;;;;;;;5074058;28;20530;-71
2022/05/28 06:19:40;;;;;;;13.90;3.70;;;;;;;;;;5073515;28;20447;-70
2022/05/28 06:22:07;;;;;;;15.80;3.83;;;;;;;;;;5073342;28;20817;-70
2022/05/28 06:24:35;;;;;;;14.53;3.30;;;;;;;;;;5073316;28;20437;-71
2022/05/28 06:27:02;;;;;;;15.33;3.60;;;;;;;;;;5073292;28;20819;-71
2022/05/28 06:29:30;;;;;;;15.47;3.50;;;;;;;;;;5072855;28;20514;-70
2022/05/28 06:32:00;;;;;;;15.60;3.50;;;;;;;;;;5073253;28;20966;-70
2022/05/28 06:34:27;;;;;;;15.70;3.77;;;;;;;;;;5073191;28;20455;-70
2022/05/28 06:36:54;;;;;;;15.20;3.33;;;;;;;;;;5072959;28;20447;-71
2022/05/28 06:39:22;;;;;;;14.47;3.80;;;;;;;;;;5073003;28;20820;-71
2022/05/28 06:41:49;;;;;;;14.33;3.67;;;;;;;;;;5072671;28;20466;-70
2022/05/28 06:44:17;;;;;;;14.23;3.90;;;;;;;;;;5072801;28;20837;-70
2022/05/28 06:46:45;;;;;;;14.97;3.30;;;;;;;;;;5072998;28;20526;-70
2022/05/28 06:49:14;;;;;;;17.23;3.30;;;;;;;;;;5072857;28;20475;-71
2022/05/28 06:51:42;;;;;;;15.47;3.30;;;;;;;;;;5072526;28;20874;-70
2022/05/28 06:54:09;;;;;;;15.50;3.40;;;;;;;;;;5072405;28;20835;-70
2022/05/28 06:56:36;;;;;;;16.20;3.80;;;;;;;;;;5072481;28;20443;-70
2022/05/28 06:59:04;;;;;;;14.40;3.60;;;;;;;;;;5073224;28;20825;-70
2022/05/28 07:01:32;;;;;;;13.60;3.47;;;;;;;;;;5072600;28;20529;-72
2022/05/28 07:03:59;;;;;;;14.83;3.40;;;;;;;;;;5072517;28;20470;-70
2022/05/28 07:06:31;;;;;;;16.60;3.87;;;;;;;;;;5072662;28;20443;-69
2022/05/28 07:08:59;;;;;;;15.30;3.50;;;;;;;;;;5072378;28;20482;-70
2022/05/28 07:11:27;;;;;;;17.73;3.83;;;;;;;;;;5072065;28;20442;-70
2022/05/28 07:13:54;;;;;;;13.70;3.13;;;;;;;;;;5072447;28;20449;-69
2022/05/28 07:16:22;;;;;;;14.33;3.00;;;;;;;;;;5072406;28;20446;-69
2022/05/28 07:18:49;;;;;;;16.00;3.53;;;;;;;;;;5072192;28;20453;-70
2022/05/28 07:21:17;;;;;;;13.83;3.40;;;;;;;;;;5072150;28;20956;-69
2022/05/28 07:23:46;;;;;;;15.50;3.70;;;;;;;;;;5071871;28;20478;-70
2022/05/28 07:26:14;;;;;;;14.50;3.30;;;;;;;;;;5072049;28;20439;-70
2022/05/28 07:28:43;;;;;;;13.70;3.00;;;;;;;;;;5072266;28;20510;-69
2022/05/28 07:31:12;;;;;;;14.00;3.20;;;;;;;;;;5072107;28;20989;-69
2022/05/28 07:33:40;;;;;;;13.00;3.17;;;;;;;;;;5072071;28;20443;-69
2022/05/28 07:36:09;;;;;;;13.00;2.90;;;;;;;;;;5071918;28;20497;-69
2022/05/28 07:38:38;;;;;;;19.20;2.90;;;;;;;;;;5072375;28;20443;-69
2022/05/28 07:41:09;;;;;;;15.00;3.43;;;;;;;;;;5072289;28;20768;-69
2022/05/28 07:43:36;;;;;;;13.43;3.13;;;;;;;;;;5071594;28;20521;-69
2022/05/28 07:46:04;;;;;;;13.93;2.73;;;;;;;;;;5072038;28;20442;-69
2022/05/28 07:48:32;;;;;;;15.53;3.03;;;;;;;;;;5071800;28;20482;-71
2022/05/28 07:50:59;;;;;;;13.80;2.70;;;;;;;;;;5071768;28;20439;-69
2022/05/28 07:53:26;;;;;;;18.10;3.80;;;;;;;;;;5071665;28;20827;-69
2022/05/28 07:55:54;;;;;;;18.53;3.60;;;;;;;;;;5071680;28;20459;-70
2022/05/28 07:58:23;;;;;;;17.73;3.43;;;;;;;;;;5071899;28;20519;-69
2022/05/28 08:00:51;;;;;;;19.13;3.80;;;;;;;;;;5071960;28;20838;-70
2022/05/28 08:03:19;;;;;;;15.60;3.40;;;;;;;;;;5071500;28;20490;-70
2022/05/28 08:25:19;;;;;;;17.93;3.93;;;;;;;;;;5068951;28;20496;-70
2022/05/28 08:27:46;;;;;;;20.10;3.77;;;;;;;;;;5068661;28;20447;-70
2022/05/28 08:30:14;;;;;;;14.27;3.50;;;;;;;;;;5068580;28;20505;-70
2022/05/28 08:32:42;;;;;;;14.13;3.07;;;;;;;;;;5068575;28;20446;-70
2022/05/28 08:35:09;;;;;;;15.43;3.40;;;;;;;;;;5068570;28;20546;-70
2022/05/28 08:37:38;;;;;;;14.87;3.47;;;;;;;;;;5068629;28;20475;-70
2022/05/28 08:40:06;;;;;;;15.20;2.90;;;;;;;;;;5068306;28;21058;-71
2022/05/28 08:42:34;;;;;;;14.87;3.40;;;;;;;;;;5068580;28;20970;-70
2022/05/28 08:45:04;;;;;;;14.13;3.20;;;;;;;;;;5068189;28;20451;-70
2022/05/28 08:47:34;;;;;;;15.17;3.27;;;;;;;;;;5068521;28;20451;-71
2022/05/28 08:50:01;;;;;;;16.43;3.17;;;;;;;;;;5068365;28;20504;-69
2022/05/28 08:52:31;;;;;;;18.23;3.20;;;;;;;;;;5068297;28;20469;-70
2022/05/28 08:55:02;;;;;;;15.10;3.57;;;;;;;;;;5068029;28;20466;-70
2022/05/28 08:57:36;;;;;;;16.60;3.50;;;;;;;;;;5068142;28;21022;-70
2022/05/28 09:00:06;;;;;;;13.77;3.53;;;;;;;;;;5068082;28;20466;-70
2022/05/28 09:02:36;;;;;;;14.57;4.30;;;;;;;;;;5068043;28;20462;-69
2022/05/28 09:05:05;;;;;;;15.53;4.13;;;;;;;;;;5067684;28;20443;-71
2022/05/28 09:07:32;;;;;;;18.27;3.30;;;;;;;;;;5067886;28;20447;-70
2022/05/28 09:10:02;;;;;;;13.70;3.30;;;;;;;;;;5067984;28;20534;-70
2022/05/28 09:12:31;;;;;;;15.00;3.80;;;;;;;;;;5067875;28;20460;-71
2022/05/28 09:14:59;;;;;;;15.23;3.70;;;;;;;;;;5067912;28;20456;-72
2022/05/28 09:17:28;;;;;;;13.80;3.20;;;;;;;;;;5067547;28;20443;-71
2022/05/28 09:19:56;;;;;;;15.07;3.57;;;;;;;;;;5067457;28;20982;-71
2022/05/28 09:22:24;;;;;;;20.57;3.50;;;;;;;;;;5059553;28;20498;-71
2022/05/28 09:24:51;;;;;;;14.93;3.83;;;;;;;;;;5054549;28;20573;-72
2022/05/28 09:27:26;;;;;;;17.90;3.90;;;;;;;;;;5054310;28;20444;-72
2022/05/28 09:30:05;;;;;;;15.70;3.23;;;;;;;;;;5054282;28;20806;-71
2022/05/28 09:32:39;;;;;;;17.70;3.20;;;;;;;;;;5054498;28;20447;-71
2022/05/28 09:35:10;;;;;;;17.40;3.23;;;;;;;;;;5053972;28;20454;-71
2022/05/28 09:37:42;;;;;;;14.40;3.20;;;;;;;;;;5054198;28;20451;-72
2022/05/28 09:40:13;;;;;;;14.10;3.30;;;;;;;;;;5047839;28;20441;-72
2022/05/28 09:42:58;;;;;;;16.97;3.43;;;;;;;;;;5046615;28;20829;-73
2022/05/28 09:45:29;;;;;;;15.00;3.23;;;;;;;;;;5045362;28;20822;-72
2022/05/28 09:47:57;;;;;;;13.93;3.20;;;;;;;;;;5052206;28;20470;-71
2022/05/28 09:50:26;;;;;;;15.80;4.00;;;;;;;;;;5053810;28;20531;-71
2022/05/28 09:55:54;;;;;;;15.97;3.40;;;;;;;;;;5047251;28;20517;-70
2022/05/28 09:58:25;;;;;;;16.40;3.10;;;;;;;;;;5047283;28;20939;-71
2022/05/28 10:00:52;;;;;;;14.93;3.23;;;;;;;;;;5053783;28;20447;-72
2022/05/28 10:06:13;;;;;;;17.53;4.00;;;;;;;;;;5044455;28;20455;-72
2022/05/28 10:08:41;;;;;;;16.77;3.37;;;;;;;;;;5042669;28;20435;-71
2022/05/28 10:11:08;;;;;;;15.40;3.40;;;;;;;;;;5044284;28;21000;-71
2022/05/28 10:13:45;;;;;;;14.40;3.33;;;;;;;;;;5044520;28;20535;-71
2022/05/28 10:16:12;;;;;;;13.90;3.03;;;;;;;;;;5039000;28;20451;-70
2022/05/28 10:18:43;;;;;;;15.00;3.70;;;;;;;;;;5044224;28;21007;-70
2022/05/28 10:21:11;;;;;;;16.13;3.63;;;;;;;;;;5040140;28;20485;-71
2022/05/28 10:23:40;;;;;;;16.03;3.53;;;;;;;;;;5039085;28;20909;-71
2022/05/28 10:26:12;;;;;;;15.17;2.90;;;;;;;;;;5041380;28;20498;-71
2022/05/28 10:28:46;;;;;;;13.40;3.20;;;;;;;;;;5046811;28;21389;-71
2022/05/28 10:31:17;;;;;;;19.73;4.23;;;;;;;;;;5043301;28;21121;-70
2022/05/28 10:33:45;;;;;;;19.20;3.57;;;;;;;;;;5046828;28;20479;-70
2022/05/28 10:36:19;;;;;;;20.10;3.63;;;;;;;;;;5052781;28;20468;-70
2022/05/28 10:38:46;;;;;;;13.73;3.10;;;;;;;;;;5044448;28;20475;-70
2022/05/28 10:41:18;;;;;;;15.30;3.33;;;;;;;;;;5046460;28;20521;-70
2022/05/28 10:43:49;;;;;;;15.03;3.40;;;;;;;;;;5041369;28;20468;-70
2022/05/28 10:46:21;;;;;;;15.43;3.33;;;;;;;;;;5044816;28;20472;-68
2022/05/28 10:49:05;;;;;;;16.43;4.60;;;;;;;;;;5040897;28;20467;-69
2022/05/28 10:51:39;;;;;;;17.43;3.67;;;;;;;;;;5045434;28;20498;-69
2022/05/28 10:54:14;;;;;;;15.43;3.40;;;;;;;;;;5047766;28;20470;-71
2022/05/28 10:56:48;;;;;;;14.70;3.23;;;;;;;;;;5052134;28;20483;-71
2022/05/28 10:59:24;;;;;;;13.90;3.90;;;;;;;;;;5051895;28;20491;-71
2022/05/28 11:01:56;;;;;;;14.83;3.43;;;;;;;;;;5051340;28;20864;-72
2022/05/28 11:04:24;;;;;;;18.83;4.40;;;;;;;;;;5051949;28;21005;-72
2022/05/28 11:07:19;;;;;;;15.17;2.73;;;;;;;;;;5051801;28;20483;-71
2022/05/28 11:09:54;;;;;;;13.60;3.60;;;;;;;;;;5016657;28;20479;-73
2022/05/28 11:12:35;;;;;;;18.53;3.67;;;;;;;;;;5051636;28;20503;-71
2022/05/28 11:15:13;;;;;;;15.57;3.23;;;;;;;;;;5045662;28;20462;-72
2022/05/28 11:17:47;;;;;;;13.20;2.97;;;;;;;;;;5040212;28;20482;-73
2022/05/28 11:20:20;;;;;;;15.07;3.10;;;;;;;;;;5041748;28;20476;-70
2022/05/28 11:22:56;;;;;;;14.50;3.00;;;;;;;;;;5045412;28;20529;-70
2022/05/28 11:25:27;;;;;;;16.63;3.30;;;;;;;;;;5052000;28;20479;-69
2022/05/28 11:28:10;;;;;;;13.73;2.93;;;;;;;;;;5048827;28;20467;-69
2022/05/28 11:30:43;;;;;;;21.90;3.17;;;;;;;;;;5051628;28;20801;-69
2022/05/28 11:33:13;;;;;;;16.60;3.50;;;;;;;;;;5051503;28;20476;-69
2022/05/28 11:35:42;;;;;;;13.37;2.60;;;;;;;;;;5051280;28;20463;-69
2022/05/28 11:38:17;;;;;;;21.40;3.60;;;;;;;;;;5047572;28;20464;-69
2022/05/28 11:40:50;;;;;;;14.10;3.50;;;;;;;;;;5038751;28;20475;-70
2022/05/28 11:43:18;;;;;;;14.60;3.53;;;;;;;;;;5044284;28;20491;-70
2022/05/28 11:45:49;;;;;;;16.43;3.90;;;;;;;;;;5044057;28;20475;-70
2022/05/28 11:48:20;;;;;;;17.47;2.90;;;;;;;;;;5044839;28;20487;-70
2022/05/28 11:53:37;;;;;;;17.20;3.87;;;;;;;;;;5046323;28;20490;-70
2022/05/28 11:56:07;;;;;;;13.00;2.83;;;;;;;;;;5046661;28;21012;-70
2022/05/28 11:58:37;;;;;;;18.57;3.40;;;;;;;;;;5045320;28;20479;-70
2022/05/28 12:01:10;;;;;;;13.90;3.40;;;;;;;;;;5043968;28;20483;-70
2022/05/28 12:03:38;;;;;;;20.80;3.53;;;;;;;;;;5051434;28;20487;-70
2022/05/28 12:06:15;;;;;;;16.30;3.50;;;;;;;;;;5051222;28;20474;-70
2022/05/28 12:08:44;;;;;;;16.57;3.90;;;;;;;;;;5051002;28;21021;-70
2022/05/28 12:11:23;;;;;;;14.60;3.00;;;;;;;;;;5050746;28;20559;-70
2022/05/28 12:13:51;;;;;;;14.90;2.93;;;;;;;;;;5051109;28;20546;-70
2022/05/28 12:16:31;;;;;;;14.27;2.97;;;;;;;;;;5050471;28;20482;-71
2022/05/28 12:19:01;;;;;;;16.63;3.50;;;;;;;;;;5047192;28;20549;-71
2022/05/28 12:21:30;;;;;;;16.13;3.67;;;;;;;;;;5050971;28;20498;-71
2022/05/28 12:24:09;;;;;;;15.43;3.70;;;;;;;;;;5051149;28;20459;-70
2022/05/28 12:29:38;;;;;;;17.50;3.20;;;;;;;;;;5044988;28;20549;-71
2022/05/28 12:32:22;;;;;;;14.20;2.83;;;;;;;;;;5046322;28;21054;-71
2022/05/28 12:34:54;;;;;;;14.37;3.20;;;;;;;;;;5050884;28;21004;-71
2022/05/28 12:37:23;;;;;;;13.77;2.87;;;;;;;;;;5050876;28;20928;-71
2022/05/28 12:39:54;;;;;;;15.20;2.87;;;;;;;;;;5047134;28;21023;-71
2022/05/28 12:42:23;;;;;;;15.43;2.90;;;;;;;;;;5041457;28;20574;-71
2022/05/28 12:44:51;;;;;;;18.70;4.30;;;;;;;;;;5046855;28;20472;-71
2022/05/28 12:47:29;;;;;;;19.97;3.33;;;;;;;;;;5050914;28;21011;-71
2022/05/28 12:49:59;;;;;;;14.93;3.30;;;;;;;;;;5049065;28;20487;-71
2022/05/28 12:52:29;;;;;;;13.47;3.10;;;;;;;;;;5044012;28;20498;-71
2022/05/28 12:55:03;;;;;;;14.67;2.97;;;;;;;;;;5044161;28;20476;-71
2022/05/28 12:57:31;;;;;;;17.93;2.70;;;;;;;;;;5052273;28;20486;-71
2022/05/28 13:00:01;;;;;;;14.07;2.97;;;;;;;;;;5054021;28;20491;-71
2022/05/28 13:02:34;;;;;;;16.63;4.00;;;;;;;;;;5047786;28;20574;-72
2022/05/28 13:05:03;;;;;;;16.13;3.40;;;;;;;;;;5047314;28;20489;-71
2022/05/28 13:07:34;;;;;;;14.10;3.30;;;;;;;;;;5054264;28;20858;-72
2022/05/28 13:10:04;;;;;;;14.33;2.80;;;;;;;;;;5054160;28;20529;-72
2022/05/28 13:12:35;;;;;;;16.70;2.90;;;;;;;;;;5053878;28;20503;-74
2022/05/28 13:15:16;;;;;;;18.70;4.83;;;;;;;;;;5047460;28;20483;-72
2022/05/28 13:17:52;;;;;;;17.50;3.50;;;;;;;;;;5043562;28;20993;-71
2022/05/28 13:20:27;;;;;;;17.83;3.43;;;;;;;;;;5046345;28;20478;-71
2022/05/28 13:23:12;;;;;;;13.43;2.70;;;;;;;;;;5045291;28;20472;-71
2022/05/28 13:25:56;;;;;;;19.00;3.60;;;;;;;;;;5044287;28;20464;-71
2022/05/28 13:28:41;;;;;;;15.07;3.17;;;;;;;;;;5045828;28;20465;-71
2022/05/28 13:31:10;;;;;;;18.83;3.40;;;;;;;;;;5050691;28;20490;-70
2022/05/28 13:33:40;;;;;;;17.30;3.00;;;;;;;;;;5053799;28;20503;-69
2022/05/28 13:36:08;;;;;;;14.57;3.17;;;;;;;;;;5053634;28;20475;-68
2022/05/28 13:38:37;;;;;;;21.30;3.67;;;;;;;;;;5053632;28;20476;-67
2022/05/28 13:41:09;;;;;;;14.20;3.50;;;;;;;;;;5053504;28;20487;-68
2022/05/28 13:43:38;;;;;;;15.13;3.30;;;;;;;;;;5053900;28;20476;-67
2022/05/28 13:46:09;;;;;;;17.13;2.80;;;;;;;;;;5053233;28;20470;-67
2022/05/28 13:48:40;;;;;;;14.27;2.83;;;;;;;;;;5047485;28;20540;-66
2022/05/28 13:51:09;;;;;;;18.80;3.10;;;;;;;;;;5047080;28;20475;-68
2022/05/28 13:53:38;;;;;;;18.20;3.23;;;;;;;;;;5048034;28;20503;-70
2022/05/28 13:56:07;;;;;;;14.30;3.30;;;;;;;;;;5047534;28;20472;-71
2022/05/28 13:58:38;;;;;;;17.27;4.00;;;;;;;;;;5043676;28;20485;-70
2022/05/28 14:01:06;;;;;;;14.83;3.50;;;;;;;;;;5042482;28;20460;-70
2022/05/28 14:03:35;;;;;;;18.23;3.83;;;;;;;;;;5045659;28;20472;-71
2022/05/28 14:06:06;;;;;;;20.13;3.20;;;;;;;;;;5042584;28;20504;-69
2022/05/28 14:08:38;;;;;;;15.70;2.97;;;;;;;;;;5043243;28;20476;-70
2022/05/28 14:11:17;;;;;;;20.17;3.80;;;;;;;;;;5049439;28;20844;-68
2022/05/28 14:13:46;;;;;;;17.33;3.03;;;;;;;;;;5044565;28;20529;-70
2022/05/28 14:16:16;;;;;;;25.60;3.60;;;;;;;;;;5043224;28;20840;-69
2022/05/28 14:18:44;;;;;;;22.83;4.33;;;;;;;;;;5050664;28;20475;-70
2022/05/28 14:21:14;;;;;;;25.03;3.67;;;;;;;;;;5040689;28;20590;-69
2022/05/28 14:23:42;;;;;;;22.10;3.97;;;;;;;;;;5052892;28;20463;-69
2022/05/28 14:26:11;;;;;;;15.23;3.50;;;;;;;;;;5052773;28;20464;-69
2022/05/28 14:28:39;;;;;;;16.73;3.90;;;;;;;;;;5048432;28;20508;-70
2022/05/28 14:31:07;;;;;;;14.90;3.60;;;;;;;;;;5044224;28;21007;-70
2022/05/28 14:33:38;;;;;;;18.63;4.70;;;;;;;;;;5045079;28;20491;-70
2022/05/28 14:36:06;;;;;;;19.77;3.60;;;;;;;;;;5052529;28;20468;-69
2022/05/28 14:38:36;;;;;;;16.30;3.40;;;;;;;;;;5052367;28;20479;-69
2022/05/28 14:41:10;;;;;;;17.00;3.80;;;;;;;;;;5052300;28;20468;-69
2022/05/28 14:43:38;;;;;;;14.67;3.43;;;;;;;;;;5051711;28;20506;-69
2022/05/28 14:46:09;;;;;;;18.13;4.03;;;;;;;;;;5052467;28;20475;-69
2022/05/28 14:48:37;;;;;;;17.23;3.40;;;;;;;;;;5051592;28;20634;-70
2022/05/28 14:51:05;;;;;;;21.73;3.63;;;;;;;;;;5051804;28;20475;-69
2022/05/28 14:53:34;;;;;;;21.83;4.37;;;;;;;;;;5050991;28;20503;-70
2022/05/28 14:56:13;;;;;;;18.33;3.37;;;;;;;;;;5042355;28;20463;-69
2022/05/28 14:58:43;;;;;;;15.00;3.07;;;;;;;;;;5043258;28;20468;-69
2022/05/28 15:01:11;;;;;;;29.80;4.20;;;;;;;;;;5042904;28;20460;-69
2022/05/28 15:03:39;;;;;;;22.07;3.93;;;;;;;;;;5045197;28;20472;-71
2022/05/28 15:06:11;;;;;;;17.00;3.47;;;;;;;;;;5050189;28;20443;-69
2022/05/28 15:08:40;;;;;;;16.70;3.20;;;;;;;;;;5051266;28;20440;-69
2022/05/28 15:11:08;;;;;;;17.50;3.87;;;;;;;;;;5051686;28;20462;-69
2022/05/28 15:13:37;;;;;;;16.17;3.53;;;;;;;;;;5052105;28;20479;-69
2022/05/28 15:16:06;;;;;;;14.40;2.80;;;;;;;;;;5052299;28;20440;-70